sensor_id;sensor_type;location;lat;lon;timestamp;pressure;altitude;pressure_sealevel;temperature;humidity
75006;BME280;63553;51.814;4.600;2024-01-15T00:00:33;100585.22;;;13.68;65.95
75006;BME280;63553;51.814;4.600;2024-01-15T00:02:58;100578.00;;;13.67;66.09
75006;BME280;63553;51.814;4.600;2024-01-15T00:05:24;100576.41;;;13.66;66.15
75006;BME280;63553;51.814;4.600;2024-01-15T00:07:49;100566.81;;;13.67;66.28
75006;BME280;63553;51.814;4.600;2024-01-15T00:10:14;100566.72;;;13.63;66.37
75006;BME280;63553;51.814;4.600;2024-01-15T00:12:40;100561.59;;;13.65;66.28
75006;BME280;63553;51.814;4.600;2024-01-15T00:15:05;100560.34;;;13.63;66.21
75006;BME280;63553;51.814;4.600;2024-01-15T00:17:31;100560.66;;;13.61;65.94
75006;BME280;63553;51.814;4.600;2024-01-15T00:19:56;100563.47;;;13.61;66.13
75006;BME280;63553;51.814;4.600;2024-01-15T00:22:21;100550.31;;;13.62;65.80
75006;BME280;63553;51.814;4.600;2024-01-15T00:24:47;100556.22;;;13.60;65.76
75006;BME280;63553;51.814;4.600;2024-01-15T00:27:12;100551.47;;;13.61;65.61
75006;BME280;63553;51.814;4.600;2024-01-15T00:29:37;100547.84;;;13.60;65.59
75006;BME280;63553;51.814;4.600;2024-01-15T00:32:03;100548.22;;;13.59;65.45
75006;BME280;63553;51.814;4.600;2024-01-15T00:34:28;100547.41;;;13.58;65.12
75006;BME280;63553;51.814;4.600;2024-01-15T00:36:54;100544.25;;;13.60;65.65
75006;BME280;63553;51.814;4.600;2024-01-15T00:39:19;100543.44;;;13.59;65.85
75006;BME280;63553;51.814;4.600;2024-01-15T00:41:44;100534.69;;;13.61;65.56
75006;BME280;63553;51.814;4.600;2024-01-15T00:44:10;100530.19;;;13.56;65.33
75006;BME280;63553;51.814;4.600;2024-01-15T00:46:45;100542.63;;;13.59;65.47
75006;BME280;63553;51.814;4.600;2024-01-15T00:49:13;100534.94;;;13.56;65.45
75006;BME280;63553;51.814;4.600;2024-01-15T00:51:39;100526.56;;;13.56;64.83
75006;BME280;63553;51.814;4.600;2024-01-15T00:54:04;100526.44;;;13.52;64.66
75006;BME280;63553;51.814;4.600;2024-01-15T00:56:30;100526.13;;;13.54;64.80
75006;BME280;63553;51.814;4.600;2024-01-15T00:58:55;100515.28;;;13.52;64.34
75006;BME280;63553;51.814;4.600;2024-01-15T01:01:20;100518.44;;;13.51;64.24
75006;BME280;63553;51.814;4.600;2024-01-15T01:03:46;100509.69;;;13.52;64.46
75006;BME280;63553;51.814;4.600;2024-01-15T01:06:11;100521.22;;;13.51;63.76
75006;BME280;63553;51.814;4.600;2024-01-15T01:08:36;100512.03;;;13.50;63.85
75006;BME280;63553;51.814;4.600;2024-01-15T01:11:02;100512.84;;;13.51;63.89
75006;BME280;63553;51.814;4.600;2024-01-15T01:13:27;100505.25;;;13.51;64.03
75006;BME280;63553;51.814;4.600;2024-01-15T01:15:52;100513.63;;;13.51;63.85
75006;BME280;63553;51.814;4.600;2024-01-15T01:18:18;100506.06;;;13.52;63.97
75006;BME280;63553;51.814;4.600;2024-01-15T01:20:43;100508.41;;;13.50;64.21
75006;BME280;63553;51.814;4.600;2024-01-15T01:23:08;100510.38;;;13.49;64.43
75006;BME280;63553;51.814;4.600;2024-01-15T01:25:34;100510.84;;;13.51;64.72
75006;BME280;63553;51.814;4.600;2024-01-15T01:27:59;100509.22;;;13.50;64.54
75006;BME280;63553;51.814;4.600;2024-01-15T01:30:24;100503.16;;;13.48;64.68
75006;BME280;63553;51.814;4.600;2024-01-15T01:32:50;100515.16;;;13.49;65.02
75006;BME280;63553;51.814;4.600;2024-01-15T01:35:15;100503.97;;;13.49;64.66
75006;BME280;63553;51.814;4.600;2024-01-15T01:37:40;100511.09;;;13.46;64.85
75006;BME280;63553;51.814;4.600;2024-01-15T01:40:06;100506.31;;;13.47;64.68
75006;BME280;63553;51.814;4.600;2024-01-15T01:42:32;100511.09;;;13.46;64.96
75006;BME280;63553;51.814;4.600;2024-01-15T01:44:57;100504.09;;;13.52;65.05
75006;BME280;63553;51.814;4.600;2024-01-15T01:47:22;100502.00;;;13.61;65.95
75006;BME280;63553;51.814;4.600;2024-01-15T01:49:48;100501.53;;;13.59;65.54
75006;BME280;63553;51.814;4.600;2024-01-15T01:52:13;100515.50;;;13.59;66.34
75006;BME280;63553;51.814;4.600;2024-01-15T01:54:40;100520.28;;;13.59;66.35
75006;BME280;63553;51.814;4.600;2024-01-15T01:57:05;100534.50;;;13.54;65.89
75006;BME280;63553;51.814;4.600;2024-01-15T01:59:34;100560.41;;;13.54;64.51
75006;BME280;63553;51.814;4.600;2024-01-15T02:02:00;100543.56;;;13.51;63.18
75006;BME280;63553;51.814;4.600;2024-01-15T02:04:29;100532.03;;;13.52;62.64
75006;BME280;63553;51.814;4.600;2024-01-15T02:06:55;100512.03;;;13.50;62.01
75006;BME280;63553;51.814;4.600;2024-01-15T02:09:20;100501.31;;;13.52;61.85
75006;BME280;63553;51.814;4.600;2024-01-15T02:11:47;100491.66;;;13.50;61.83
75006;BME280;63553;51.814;4.600;2024-01-15T02:14:13;100488.03;;;13.49;61.75
75006;BME280;63553;51.814;4.600;2024-01-15T02:16:39;100477.56;;;13.46;61.81
75006;BME280;63553;51.814;4.600;2024-01-15T02:19:04;100481.50;;;13.45;62.15
75006;BME280;63553;51.814;4.600;2024-01-15T02:21:31;100483.84;;;13.43;62.11
75006;BME280;63553;51.814;4.600;2024-01-15T02:23:57;100487.09;;;13.45;62.46
75006;BME280;63553;51.814;4.600;2024-01-15T02:26:22;100495.16;;;13.47;62.56
75006;BME280;63553;51.814;4.600;2024-01-15T02:28:48;100491.41;;;13.43;62.18
75006;BME280;63553;51.814;4.600;2024-01-15T02:31:14;100487.34;;;13.52;62.83
75006;BME280;63553;51.814;4.600;2024-01-15T02:33:39;100478.00;;;13.60;63.21
75006;BME280;63553;51.814;4.600;2024-01-15T02:36:05;100487.69;;;13.63;63.35
75006;BME280;63553;51.814;4.600;2024-01-15T02:38:31;100486.06;;;13.62;63.69
75006;BME280;63553;51.814;4.600;2024-01-15T02:40:56;100485.94;;;13.58;63.86
75006;BME280;63553;51.814;4.600;2024-01-15T02:43:22;100480.72;;;13.57;63.53
75006;BME280;63553;51.814;4.600;2024-01-15T02:45:47;100484.53;;;13.52;63.54
75006;BME280;63553;51.814;4.600;2024-01-15T02:48:12;100487.34;;;13.52;63.27
75006;BME280;63553;51.814;4.600;2024-01-15T02:50:38;100483.28;;;13.50;63.27
75006;BME280;63553;51.814;4.600;2024-01-15T02:53:03;100482.44;;;13.49;63.21
75006;BME280;63553;51.814;4.600;2024-01-15T02:55:29;100488.41;;;13.48;63.04
75006;BME280;63553;51.814;4.600;2024-01-15T02:57:54;100489.91;;;13.45;62.42
75006;BME280;63553;51.814;4.600;2024-01-15T03:00:20;100484.31;;;13.45;62.24
75006;BME280;63553;51.814;4.600;2024-01-15T03:02:45;100489.44;;;13.43;61.82
75006;BME280;63553;51.814;4.600;2024-01-15T03:05:11;100494.56;;;13.41;61.82
75006;BME280;63553;51.814;4.600;2024-01-15T03:07:36;100486.53;;;13.40;61.41
75006;BME280;63553;51.814;4.600;2024-01-15T03:10:02;100491.31;;;13.39;61.34
75006;BME280;63553;51.814;4.600;2024-01-15T03:12:27;100496.41;;;13.37;61.02
75006;BME280;63553;51.814;4.600;2024-01-15T03:14:53;100490.03;;;13.36;60.78
75006;BME280;63553;51.814;4.600;2024-01-15T03:17:18;100489.69;;;13.38;60.29
75006;BME280;63553;51.814;4.600;2024-01-15T03:19:43;100500.41;;;13.36;60.15
75006;BME280;63553;51.814;4.600;2024-01-15T03:22:09;100509.94;;;13.35;59.83
75006;BME280;63553;51.814;4.600;2024-01-15T03:24:34;100513.88;;;13.34;59.63
75006;BME280;63553;51.814;4.600;2024-01-15T03:27:00;100517.84;;;13.33;59.11
75006;BME280;63553;51.814;4.600;2024-01-15T03:29:26;100503.53;;;13.34;58.74
75006;BME280;63553;51.814;4.600;2024-01-15T03:31:51;100513.06;;;13.33;58.67
75006;BME280;63553;51.814;4.600;2024-01-15T03:34:17;100496.28;;;13.33;58.85
75006;BME280;63553;51.814;4.600;2024-01-15T03:36:42;100498.63;;;13.31;58.65
75006;BME280;63553;51.814;4.600;2024-01-15T03:39:07;100493.41;;;13.30;59.12
75006;BME280;63553;51.814;4.600;2024-01-15T03:41:33;100485.50;;;13.32;59.29
75006;BME280;63553;51.814;4.600;2024-01-15T03:43:58;100481.06;;;13.31;59.41
75006;BME280;63553;51.814;4.600;2024-01-15T03:46:24;100475.47;;;13.31;59.61
75006;BME280;63553;51.814;4.600;2024-01-15T03:48:49;100460.69;;;13.30;59.83
75006;BME280;63553;51.814;4.600;2024-01-15T03:51:17;100465.94;;;13.32;60.17
75006;BME280;63553;51.814;4.600;2024-01-15T03:53:42;100462.34;;;13.31;60.06
75006;BME280;63553;51.814;4.600;2024-01-15T03:56:08;100466.41;;;13.34;60.60
75006;BME280;63553;51.814;4.600;2024-01-15T03:58:33;100460.38;;;13.32;60.44
75006;BME280;63553;51.814;4.600;2024-01-15T04:00:58;100455.94;;;13.31;60.47
75006;BME280;63553;51.814;4.600;2024-01-15T04:03:24;100448.25;;;13.28;60.75
75006;BME280;63553;51.814;4.600;2024-01-15T04:05:49;100455.59;;;13.32;60.55
75006;BME280;63553;51.814;4.600;2024-01-15T04:08:14;100457.91;;;13.30;60.57
75006;BME280;63553;51.814;4.600;2024-01-15T04:10:40;100459.53;;;13.31;60.58
75006;BME280;63553;51.814;4.600;2024-01-15T04:13:05;100453.13;;;13.31;60.67
75006;BME280;63553;51.814;4.600;2024-01-15T04:15:30;100449.19;;;13.32;60.51
75006;BME280;63553;51.814;4.600;2024-01-15T04:17:56;100447.56;;;13.31;60.47
75006;BME280;63553;51.814;4.600;2024-01-15T04:20:21;100443.84;;;13.27;60.08
75006;BME280;63553;51.814;4.600;2024-01-15T04:22:46;100442.66;;;13.28;59.98
75006;BME280;63553;51.814;4.600;2024-01-15T04:25:12;100451.03;;;13.28;59.71
75006;BME280;63553;51.814;4.600;2024-01-15T04:27:37;100456.63;;;13.28;59.32
75006;BME280;63553;51.814;4.600;2024-01-15T04:30:03;100444.66;;;13.27;59.28
75006;BME280;63553;51.814;4.600;2024-01-15T04:32:28;100441.06;;;13.27;59.21
75006;BME280;63553;51.814;4.600;2024-01-15T04:34:55;100437.09;;;13.28;59.39
75006;BME280;63553;51.814;4.600;2024-01-15T04:37:20;100438.59;;;13.25;59.47
75006;BME280;63553;51.814;4.600;2024-01-15T04:39:45;100434.28;;;13.28;59.60
75006;BME280;63553;51.814;4.600;2024-01-15T04:42:11;100440.25;;;13.26;59.61
75006;BME280;63553;51.814;4.600;2024-01-15T04:44:36;100447.09;;;13.29;60.09
75006;BME280;63553;51.814;4.600;2024-01-15T04:47:01;100447.44;;;13.27;59.77
75006;BME280;63553;51.814;4.600;2024-01-15T04:49:27;100448.25;;;13.28;59.55
75006;BME280;63553;51.814;4.600;2024-01-15T04:51:54;100435.47;;;13.27;59.46
75006;BME280;63553;51.814;4.600;2024-01-15T04:54:19;100433.47;;;13.27;59.52
75006;BME280;63553;51.814;4.600;2024-01-15T04:56:45;100419.06;;;13.25;59.54
75006;BME280;63553;51.814;4.600;2024-01-15T04:59:11;100425.09;;;13.27;59.65
75006;BME280;63553;51.814;4.600;2024-01-15T05:01:36;100423.81;;;13.25;59.92
75006;BME280;63553;51.814;4.600;2024-01-15T05:04:02;100428.25;;;13.26;60.03
75006;BME280;63553;51.814;4.600;2024-01-15T05:06:27;100425.00;;;13.24;60.27
75006;BME280;63553;51.814;4.600;2024-01-15T05:08:53;100427.81;;;13.24;59.86
75006;BME280;63553;51.814;4.600;2024-01-15T05:11:18;100424.63;;;13.38;61.28
75006;BME280;63553;51.814;4.600;2024-01-15T05:13:44;100424.75;;;13.41;61.83
75006;BME280;63553;51.814;4.600;2024-01-15T05:16:09;100413.34;;;13.46;62.05
75006;BME280;63553;51.814;4.600;2024-01-15T05:18:34;100415.16;;;13.54;63.70
75006;BME280;63553;51.814;4.600;2024-01-15T05:21:02;100424.47;;;13.58;61.72
75006;BME280;63553;51.814;4.600;2024-01-15T05:23:27;100418.91;;;13.58;60.41
75006;BME280;63553;51.814;4.600;2024-01-15T05:25:53;100421.56;;;13.67;63.47
75006;BME280;63553;51.814;4.600;2024-01-15T05:28:18;100425.28;;;13.71;65.09
75006;BME280;63553;51.814;4.600;2024-01-15T05:30:44;100421.66;;;13.70;61.80
75006;BME280;63553;51.814;4.600;2024-01-15T05:33:09;100414.34;;;13.66;60.85
75006;BME280;63553;51.814;4.600;2024-01-15T05:35:34;100409.00;;;13.61;59.98
75006;BME280;63553;51.814;4.600;2024-01-15T05:38:00;100412.38;;;13.54;59.34
75006;BME280;63553;51.814;4.600;2024-01-15T05:40:25;100393.78;;;13.46;58.81
75006;BME280;63553;51.814;4.600;2024-01-15T05:42:50;100392.50;;;13.44;59.05
75006;BME280;63553;51.814;4.600;2024-01-15T05:45:16;100396.47;;;13.43;58.48
75006;BME280;63553;51.814;4.600;2024-01-15T05:47:41;100410.78;;;13.41;58.23
75006;BME280;63553;51.814;4.600;2024-01-15T05:50:08;100412.66;;;13.37;58.17
75006;BME280;63553;51.814;4.600;2024-01-15T05:52:33;100419.41;;;13.36;58.09
75006;BME280;63553;51.814;4.600;2024-01-15T05:54:59;100418.22;;;13.37;57.57
75006;BME280;63553;51.814;4.600;2024-01-15T05:57:24;100419.50;;;13.40;57.47
75006;BME280;63553;51.814;4.600;2024-01-15T05:59:49;100413.91;;;13.40;58.02
75006;BME280;63553;51.814;4.600;2024-01-15T06:02:15;100417.28;;;13.45;58.97
75006;BME280;63553;51.814;4.600;2024-01-15T06:04:40;100389.94;;;13.51;59.36
75006;BME280;63553;51.814;4.600;2024-01-15T06:07:06;100399.56;;;13.65;59.72
75006;BME280;63553;51.814;4.600;2024-01-15T06:09:31;100389.38;;;13.85;59.70
75006;BME280;63553;51.814;4.600;2024-01-15T06:11:56;100384.16;;;14.27;60.98
75006;BME280;63553;51.814;4.600;2024-01-15T06:14:22;100380.44;;;14.66;61.28
75006;BME280;63553;51.814;4.600;2024-01-15T06:16:47;100383.41;;;14.89;60.16
75006;BME280;63553;51.814;4.600;2024-01-15T06:19:13;100380.13;;;15.18;59.30
75006;BME280;63553;51.814;4.600;2024-01-15T06:21:38;100384.66;;;15.42;58.90
75006;BME280;63553;51.814;4.600;2024-01-15T06:24:03;100380.47;;;15.67;58.11
75006;BME280;63553;51.814;4.600;2024-01-15T06:26:29;100391.41;;;15.91;57.38
75006;BME280;63553;51.814;4.600;2024-01-15T06:28:54;100402.00;;;16.21;56.59
75006;BME280;63553;51.814;4.600;2024-01-15T06:31:20;100411.59;;;16.39;56.09
75006;BME280;63553;51.814;4.600;2024-01-15T06:33:45;100414.59;;;16.69;54.49
75006;BME280;63553;51.814;4.600;2024-01-15T06:36:13;100423.25;;;16.83;53.40
75006;BME280;63553;51.814;4.600;2024-01-15T06:38:38;100415.47;;;16.95;52.73
75006;BME280;63553;51.814;4.600;2024-01-15T06:41:04;100414.53;;;17.14;51.93
75006;BME280;63553;51.814;4.600;2024-01-15T06:43:29;100397.16;;;17.31;50.99
75006;BME280;63553;51.814;4.600;2024-01-15T06:45:54;100401.84;;;17.50;50.60
75006;BME280;63553;51.814;4.600;2024-01-15T06:48:20;100403.38;;;17.70;50.19
75006;BME280;63553;51.814;4.600;2024-01-15T06:50:45;100401.72;;;17.95;49.10
75006;BME280;63553;51.814;4.600;2024-01-15T06:53:11;100405.91;;;18.08;49.06
75006;BME280;63553;51.814;4.600;2024-01-15T06:55:38;100392.03;;;18.26;48.59
75006;BME280;63553;51.814;4.600;2024-01-15T06:58:03;100389.78;;;18.42;48.52
75006;BME280;63553;51.814;4.600;2024-01-15T07:00:28;100385.97;;;18.57;47.55
75006;BME280;63553;51.814;4.600;2024-01-15T07:02:54;100392.53;;;18.72;47.90
75006;BME280;63553;51.814;4.600;2024-01-15T07:05:21;100384.25;;;18.90;47.86
75006;BME280;63553;51.814;4.600;2024-01-15T07:07:46;100387.59;;;19.02;47.65
75006;BME280;63553;51.814;4.600;2024-01-15T07:10:12;100395.72;;;19.14;47.49
75006;BME280;63553;51.814;4.600;2024-01-15T07:12:38;100399.44;;;19.25;47.33
75006;BME280;63553;51.814;4.600;2024-01-15T07:15:03;100391.09;;;19.39;46.78
75006;BME280;63553;51.814;4.600;2024-01-15T07:17:31;100389.19;;;19.51;46.46
75006;BME280;63553;51.814;4.600;2024-01-15T07:19:57;100401.72;;;19.57;46.60
75006;BME280;63553;51.814;4.600;2024-01-15T07:22:22;100391.66;;;19.66;46.64
75006;BME280;63553;51.814;4.600;2024-01-15T07:24:47;100396.56;;;19.76;46.15
75006;BME280;63553;51.814;4.600;2024-01-15T07:27:13;100409.53;;;19.88;45.52
75006;BME280;63553;51.814;4.600;2024-01-15T07:29:38;100383.75;;;19.93;45.68
75006;BME280;63553;51.814;4.600;2024-01-15T07:32:04;100378.13;;;20.00;44.99
75006;BME280;63553;51.814;4.600;2024-01-15T07:34:30;100369.28;;;20.05;44.88
75006;BME280;63553;51.814;4.600;2024-01-15T07:36:55;100363.66;;;20.19;44.65
75006;BME280;63553;51.814;4.600;2024-01-15T07:39:21;100371.41;;;20.29;44.19
75006;BME280;63553;51.814;4.600;2024-01-15T07:41:48;100369.41;;;20.40;44.49
75006;BME280;63553;51.814;4.600;2024-01-15T07:44:14;100367.84;;;20.54;44.07
75006;BME280;63553;51.814;4.600;2024-01-15T07:46:40;100377.13;;;20.65;44.06
75006;BME280;63553;51.814;4.600;2024-01-15T07:49:06;100374.31;;;20.75;44.15
75006;BME280;63553;51.814;4.600;2024-01-15T07:51:31;100384.81;;;20.78;44.17
75006;BME280;63553;51.814;4.600;2024-01-15T07:53:57;100399.34;;;20.84;43.65
75006;BME280;63553;51.814;4.600;2024-01-15T07:56:22;100394.50;;;20.88;43.33
75006;BME280;63553;51.814;4.600;2024-01-15T07:58:47;100386.44;;;20.86;43.23
75006;BME280;63553;51.814;4.600;2024-01-15T08:01:13;100394.53;;;20.84;43.19
75006;BME280;63553;51.814;4.600;2024-01-15T08:03:38;100402.19;;;20.84;42.71
75006;BME280;63553;51.814;4.600;2024-01-15T08:06:05;100394.91;;;20.93;42.17
75006;BME280;63553;51.814;4.600;2024-01-15T08:08:30;100379.19;;;20.96;42.12
75006;BME280;63553;51.814;4.600;2024-01-15T08:10:56;100374.31;;;21.00;41.26
75006;BME280;63553;51.814;4.600;2024-01-15T08:13:21;100378.34;;;21.06;41.40
75006;BME280;63553;51.814;4.600;2024-01-15T08:15:47;100383.19;;;21.05;40.97
75006;BME280;63553;51.814;4.600;2024-01-15T08:18:12;100371.53;;;21.11;40.34
75006;BME280;63553;51.814;4.600;2024-01-15T08:20:37;100371.94;;;21.16;40.42
75006;BME280;63553;51.814;4.600;2024-01-15T08:23:03;100373.13;;;21.19;40.57
75006;BME280;63553;51.814;4.600;2024-01-15T08:25:29;100365.03;;;21.24;40.35
75006;BME280;63553;51.814;4.600;2024-01-15T08:27:56;100367.88;;;21.28;40.45
75006;BME280;63553;51.814;4.600;2024-01-15T08:30:21;100361.78;;;21.29;40.13
75006;BME280;63553;51.814;4.600;2024-01-15T08:32:49;100372.72;;;21.34;39.82
75006;BME280;63553;51.814;4.600;2024-01-15T08:35:15;100375.94;;;21.43;39.82
75006;BME280;63553;51.814;4.600;2024-01-15T08:37:40;100377.53;;;21.51;39.64
75006;BME280;63553;51.814;4.600;2024-01-15T08:40:06;100384.00;;;21.55;39.30
75006;BME280;63553;51.814;4.600;2024-01-15T08:42:31;100391.25;;;21.64;39.30
75006;BME280;63553;51.814;4.600;2024-01-15T08:44:57;100392.00;;;21.75;38.64
75006;BME280;63553;51.814;4.600;2024-01-15T08:47:22;100387.97;;;21.76;38.75
75006;BME280;63553;51.814;4.600;2024-01-15T08:49:48;100383.91;;;21.80;38.83
75006;BME280;63553;51.814;4.600;2024-01-15T08:52:13;100386.34;;;21.82;38.38
75006;BME280;63553;51.814;4.600;2024-01-15T08:54:39;100391.19;;;21.81;38.19
75006;BME280;63553;51.814;4.600;2024-01-15T08:57:04;100387.94;;;21.83;38.26
75006;BME280;63553;51.814;4.600;2024-01-15T08:59:29;100386.75;;;21.91;38.15
75006;BME280;63553;51.814;4.600;2024-01-15T09:01:55;100388.34;;;21.95;37.85
75006;BME280;63553;51.814;4.600;2024-01-15T09:04:23;100390.69;;;22.14;37.59
75006;BME280;63553;51.814;4.600;2024-01-15T09:06:48;100403.13;;;22.31;37.43
75006;BME280;63553;51.814;4.600;2024-01-15T09:09:14;100397.75;;;22.54;36.93
75006;BME280;63553;51.814;4.600;2024-01-15T09:11:42;100390.28;;;22.85;36.81
75006;BME280;63553;51.814;4.600;2024-01-15T09:14:07;100395.00;;;23.02;36.09
75006;BME280;63553;51.814;4.600;2024-01-15T09:16:33;100402.06;;;23.28;35.51
75006;BME280;63553;51.814;4.600;2024-01-15T09:18:59;100404.34;;;23.51;35.23
75006;BME280;63553;51.814;4.600;2024-01-15T09:21:25;100395.78;;;23.54;35.44
75006;BME280;63553;51.814;4.600;2024-01-15T09:23:50;100397.88;;;23.47;35.54
75006;BME280;63553;51.814;4.600;2024-01-15T09:26:16;100400.38;;;23.38;35.97
75006;BME280;63553;51.814;4.600;2024-01-15T09:28:41;100403.78;;;23.22;35.80
75006;BME280;63553;51.814;4.600;2024-01-15T09:31:07;100403.47;;;23.09;35.81
75006;BME280;63553;51.814;4.600;2024-01-15T09:33:32;100404.78;;;22.98;35.52
75006;BME280;63553;51.814;4.600;2024-01-15T09:36:01;100409.69;;;22.87;35.35
75006;BME280;63553;51.814;4.600;2024-01-15T09:38:27;100413.00;;;22.82;35.23
75006;BME280;63553;51.814;4.600;2024-01-15T09:40:53;100416.25;;;22.80;35.60
75006;BME280;63553;51.814;4.600;2024-01-15T09:43:18;100414.16;;;22.88;35.19
75006;BME280;63553;51.814;4.600;2024-01-15T09:45:44;100409.22;;;22.99;34.83
75006;BME280;63553;51.814;4.600;2024-01-15T09:48:10;100412.78;;;23.10;34.88
75006;BME280;63553;51.814;4.600;2024-01-15T09:50:35;100413.53;;;23.14;34.78
75006;BME280;63553;51.814;4.600;2024-01-15T09:53:01;100409.03;;;23.20;34.46
75006;BME280;63553;51.814;4.600;2024-01-15T09:55:27;100403.69;;;23.29;34.64
75006;BME280;63553;51.814;4.600;2024-01-15T09:57:53;100404.13;;;23.28;35.02
75006;BME280;63553;51.814;4.600;2024-01-15T10:00:20;100409.78;;;23.28;35.12
75006;BME280;63553;51.814;4.600;2024-01-15T10:02:46;100398.81;;;23.30;35.09
75006;BME280;63553;51.814;4.600;2024-01-15T10:05:11;100395.63;;;23.28;35.09
75006;BME280;63553;51.814;4.600;2024-01-15T10:07:37;100406.47;;;23.36;35.00
75006;BME280;63553;51.814;4.600;2024-01-15T10:10:03;100418.56;;;23.47;34.62
75006;BME280;63553;51.814;4.600;2024-01-15T10:12:31;100414.38;;;23.59;34.01
75006;BME280;63553;51.814;4.600;2024-01-15T10:14:57;100409.88;;;23.61;33.83
75006;BME280;63553;51.814;4.600;2024-01-15T10:17:24;100413.38;;;23.76;33.89
75006;BME280;63553;51.814;4.600;2024-01-15T10:19:49;100416.81;;;23.94;33.26
75006;BME280;63553;51.814;4.600;2024-01-15T10:22:15;100410.25;;;24.01;32.91
75006;BME280;63553;51.814;4.600;2024-01-15T10:24:41;100411.19;;;23.91;33.63
75006;BME280;63553;51.814;4.600;2024-01-15T10:27:10;100428.00;;;23.74;33.53
75006;BME280;63553;51.814;4.600;2024-01-15T10:29:36;100440.34;;;23.57;33.85
75006;BME280;63553;51.814;4.600;2024-01-15T10:32:08;100440.09;;;23.41;33.67
75006;BME280;63553;51.814;4.600;2024-01-15T10:34:40;100430.44;;;23.28;33.32
75006;BME280;63553;51.814;4.600;2024-01-15T10:37:09;100437.81;;;23.22;33.36
75006;BME280;63553;51.814;4.600;2024-01-15T10:39:35;100435.81;;;23.19;33.76
75006;BME280;63553;51.814;4.600;2024-01-15T10:42:01;100435.81;;;23.19;33.68
75006;BME280;63553;51.814;4.600;2024-01-15T10:44:28;100444.69;;;23.24;33.70
75006;BME280;63553;51.814;4.600;2024-01-15T10:46:55;100439.41;;;23.23;34.01
75006;BME280;63553;51.814;4.600;2024-01-15T10:49:22;100443.06;;;23.23;34.11
75006;BME280;63553;51.814;4.600;2024-01-15T10:51:50;100430.84;;;23.30;34.07
75006;BME280;63553;51.814;4.600;2024-01-15T10:54:18;100429.56;;;23.42;34.06
75006;BME280;63553;51.814;4.600;2024-01-15T10:56:45;100427.91;;;23.44;34.41
75006;BME280;63553;51.814;4.600;2024-01-15T10:59:11;100420.59;;;23.43;34.65
75006;BME280;63553;51.814;4.600;2024-01-15T11:01:38;100426.25;;;23.47;34.52
75006;BME280;63553;51.814;4.600;2024-01-15T11:04:03;100421.00;;;23.45;34.16
75006;BME280;63553;51.814;4.600;2024-01-15T11:06:42;100422.59;;;23.46;34.46
75006;BME280;63553;51.814;4.600;2024-01-15T11:09:08;100425.06;;;23.44;34.50
75006;BME280;63553;51.814;4.600;2024-01-15T11:11:35;100438.06;;;23.38;34.41
75006;BME280;63553;51.814;4.600;2024-01-15T11:14:02;100438.13;;;23.31;34.37
75006;BME280;63553;51.814;4.600;2024-01-15T11:16:54;100434.56;;;23.20;33.90
75006;BME280;63553;51.814;4.600;2024-01-15T11:19:21;100429.00;;;23.09;33.83
75006;BME280;63553;51.814;4.600;2024-01-15T11:21:47;100431.91;;;22.99;34.13
75006;BME280;63553;51.814;4.600;2024-01-15T11:24:39;100435.19;;;22.90;34.09
75006;BME280;63553;51.814;4.600;2024-01-15T11:27:06;100433.25;;;22.80;34.15
75006;BME280;63553;51.814;4.600;2024-01-15T11:29:36;100430.88;;;22.72;34.42
75006;BME280;63553;51.814;4.600;2024-01-15T11:32:11;100424.03;;;22.58;34.39
75006;BME280;63553;51.814;4.600;2024-01-15T11:37:18;100415.66;;;22.34;33.92
75006;BME280;63553;51.814;4.600;2024-01-15T11:39:44;100427.84;;;22.27;34.69
75006;BME280;63553;51.814;4.600;2024-01-15T11:42:11;100433.16;;;22.14;34.92
75006;BME280;63553;51.814;4.600;2024-01-15T11:44:38;100427.97;;;22.02;34.62
75006;BME280;63553;51.814;4.600;2024-01-15T11:47:08;100433.25;;;21.90;34.88
75006;BME280;63553;51.814;4.600;2024-01-15T11:50:02;100442.13;;;21.81;34.90
75006;BME280;63553;51.814;4.600;2024-01-15T11:52:37;100442.94;;;21.75;34.73
75006;BME280;63553;51.814;4.600;2024-01-15T11:55:26;100457.09;;;21.71;36.13
75006;BME280;63553;51.814;4.600;2024-01-15T11:57:53;100452.72;;;21.52;37.21
75006;BME280;63553;51.814;4.600;2024-01-15T12:00:20;100455.94;;;21.40;37.69
75006;BME280;63553;51.814;4.600;2024-01-15T12:02:47;100466.03;;;21.27;38.16
75006;BME280;63553;51.814;4.600;2024-01-15T12:05:17;100462.00;;;21.14;38.14
75006;BME280;63553;51.814;4.600;2024-01-15T12:07:44;100465.59;;;21.04;37.92
75006;BME280;63553;51.814;4.600;2024-01-15T12:10:10;100472.03;;;20.94;37.88
75006;BME280;63553;51.814;4.600;2024-01-15T12:15:20;100474.00;;;20.76;38.21
75006;BME280;63553;51.814;4.600;2024-01-15T12:17:46;100474.00;;;20.65;38.36
75006;BME280;63553;51.814;4.600;2024-01-15T12:20:12;100478.38;;;20.56;38.53
75006;BME280;63553;51.814;4.600;2024-01-15T12:22:38;100484.41;;;20.47;38.69
75006;BME280;63553;51.814;4.600;2024-01-15T12:25:03;100480.78;;;20.39;38.38
75006;BME280;63553;51.814;4.600;2024-01-15T12:27:29;100491.19;;;20.28;38.81
75006;BME280;63553;51.814;4.600;2024-01-15T12:29:55;100490.31;;;20.21;38.83
75006;BME280;63553;51.814;4.600;2024-01-15T12:32:20;100492.28;;;20.10;39.05
75006;BME280;63553;51.814;4.600;2024-01-15T12:34:49;100495.47;;;20.01;39.69
75006;BME280;63553;51.814;4.600;2024-01-15T12:37:14;100506.31;;;19.92;39.71
75006;BME280;63553;51.814;4.600;2024-01-15T12:39:43;100510.25;;;19.84;40.00
75006;BME280;63553;51.814;4.600;2024-01-15T12:42:08;100505.38;;;19.74;40.30
75006;BME280;63553;51.814;4.600;2024-01-15T12:44:35;100506.50;;;19.66;40.52
75006;BME280;63553;51.814;4.600;2024-01-15T12:47:01;100513.28;;;19.58;40.66
75006;BME280;63553;51.814;4.600;2024-01-15T12:49:26;100510.84;;;19.53;41.17